Orange Lake, Florida
Current Conditions -  °F | °C
As of 3:50 PM on Monday 24 Nov 2014 (Local Time) from KOCF Reporting Station
Scattered Clouds Scattered Clouds  
Wind Chill: 84°   Ceiling: Unl
Heat Index: 87°   Visibility: 10mi
Dew Point: 68°   Wind: 14mph
Humidity: 58%   Direction: 220°SW
Pressure: 29.91"   Gusts: 22mph
Location:  29.43°N, 82.22°W
Report Text: KOCF 242050Z 22012G19KT 10SM SCT037 29/20 A2991
Loading
Personal Weather Stations






























Interactive Weather Map New forecast layout! Learn more

10-Day Weather Forecast

Advertisements
Track Severe Weather on mobile